Huvudsida
METAR-TAF:

METAR-TAF

Flygplatser :

Bračs flygplats

Brač, Kroatien

latitud: 43-17-09N, longitud: 016-40-47E, höjd: 541 m

Aktuellt väderrapport

Denna rapport gjordes för 17 timmar och 16 minuter sedan, klockan 13:00 UTC
Vind 20 kt från nord/nordost
Temperatur 15°C
Fuktighet 25%
Tryck 1014 hPa
Sikt 10 km eller mer
Inga moln under 1 500 m eller inga cumulonimbus

METAR: LDSB 041300Z 03020KT CAVOK 15/M05 Q1014

Tid: 08:16 (06:16 UTC)

Väderprognos

Denna rapport gjordes för 18 timmar och 51 minuter sedan, klockan 11:25 UTC
Prognos gäller från 04 kl. 12 UTC till 05 kl. 12 UTC
Vind 20 kt från nordost
Sikt 10 km eller mer
Inga moln under 1 500 m eller inga cumulonimbus
Temporärt
från 04 kl. 12 UTC till 05 kl. 07 UTC
Vind 25 kt från nord/nordost i byarna ända upp till 35 kt

TAF: LDSB 041125Z 0412/0512 04020KT CAVOK TX18/0511Z TN11/0505Z TEMPO 0412/0507 03025G35KT

Aktuella väderrapporter och prognoser från 4000 flygplatser (METAR- och TAF-rapporter).

De tillgängliga stationerna syns som gula och röda prickar på kartan.

För musen över prickarna för att se namnen på stationerna.

Klicka sedan för att få väderrapporter och prognoser.

För att ändra kartan: Klicka på de gröna knapparna med ett svart kors på för att zooma in; den gröna knappen med ett streck på för att zooma ut; eller på de gröna pilarna för angränsande kartor.


METAR-TAF: